createdAt,value
2024-05-09T00:01:05.224Z,98466.66
2024-05-09T00:03:35.441Z,98462.25
2024-05-09T00:06:05.805Z,98458.78
2024-05-09T00:08:36.259Z,98460.44
2024-05-09T00:11:06.860Z,98464.47
2024-05-09T00:13:37.030Z,98468.91
2024-05-09T00:16:10.329Z,98463.19
2024-05-09T00:18:40.648Z,98460.53
2024-05-09T00:21:12.684Z,98464.94
2024-05-09T00:23:43.138Z,98465.03
2024-05-09T00:26:13.310Z,98467.69
2024-05-09T00:28:43.557Z,98460.47
2024-05-09T00:31:16.362Z,98454.59
2024-05-09T00:33:46.550Z,98461.56
2024-05-09T00:36:16.750Z,98462.47
2024-05-09T00:38:47.492Z,98455.84
2024-05-09T00:41:19.668Z,98455.94
2024-05-09T00:43:50.121Z,98451.84
2024-05-09T00:46:23.728Z,98452.00
2024-05-09T00:48:54.033Z,98453.75
2024-05-09T00:51:24.385Z,98457.31
2024-05-09T00:53:54.586Z,98459.16
2024-05-09T00:56:25.453Z,98455.03
2024-05-09T00:58:56.237Z,98450.75
2024-05-09T01:01:29.574Z,98445.69
2024-05-09T01:04:00.132Z,98446.69
2024-05-09T01:06:30.325Z,98446.13
2024-05-09T01:09:00.522Z,98448.88
2024-05-09T01:11:38.837Z,98449.63
2024-05-09T01:14:06.616Z,98443.84
2024-05-09T01:16:39.619Z,98453.09
2024-05-09T01:19:19.680Z,98453.19
2024-05-09T01:21:49.970Z,98448.97
2024-05-09T01:24:22.833Z,98450.03
2024-05-09T01:26:53.362Z,98453.63
2024-05-09T01:29:23.576Z,98453.81
2024-05-09T01:31:54.372Z,98446.63
2024-05-09T01:34:21.997Z,98454.31
2024-05-09T01:36:52.273Z,98447.75
2024-05-09T01:39:25.040Z,98459.97
2024-05-09T01:41:55.177Z,98462.00
2024-05-09T01:44:25.464Z,98465.28
2024-05-09T01:46:55.685Z,98456.88
2024-05-09T01:49:26.348Z,98464.56
2024-05-09T01:51:56.674Z,98453.53
2024-05-09T01:54:29.478Z,98457.84
2024-05-09T01:56:59.597Z,98444.22
2024-05-09T01:59:29.947Z,98453.63
2024-05-09T02:02:00.257Z,98451.25
2024-05-09T02:04:30.824Z,98459.19
2024-05-09T02:07:00.971Z,98454.25
2024-05-09T02:09:33.734Z,98454.34
2024-05-09T02:12:03.947Z,98460.63
2024-05-09T02:14:34.233Z,98464.50
2024-05-09T02:17:04.464Z,98464.69
2024-05-09T02:19:34.725Z,98469.00
2024-05-09T02:22:04.943Z,98459.38
2024-05-09T02:24:37.700Z,98463.53
2024-05-09T02:27:08.420Z,98462.03
2024-05-09T02:29:38.989Z,98461.31
2024-05-09T02:32:09.836Z,98458.91
2024-05-09T02:34:40.055Z,98461.56
2024-05-09T02:37:07.521Z,98462.38
2024-05-09T02:39:40.432Z,98449.50
2024-05-09T02:42:07.907Z,98460.56
2024-05-09T02:44:38.048Z,98457.44
2024-05-09T02:47:05.840Z,98450.91
2024-05-09T02:49:36.283Z,98446.91
2024-05-09T02:52:04.183Z,98449.63
2024-05-09T02:54:34.306Z,98450.41
2024-05-09T02:57:04.857Z,98456.28
2024-05-09T02:59:35.262Z,98457.22
2024-05-09T03:02:02.908Z,98457.31
2024-05-09T03:04:33.155Z,98457.41
2024-05-09T03:07:00.711Z,98460.22
2024-05-09T03:09:30.850Z,98462.78
2024-05-09T03:11:58.520Z,98460.97
2024-05-09T03:14:31.612Z,98456.84
2024-05-09T03:16:59.156Z,98457.09
2024-05-09T03:19:29.355Z,98463.13
2024-05-09T03:21:56.935Z,98456.50
2024-05-09T03:24:27.065Z,98459.41
2024-05-09T03:26:54.584Z,98451.38
2024-05-09T03:29:24.761Z,98451.97
2024-05-09T03:31:55.565Z,98460.69
2024-05-09T03:34:25.816Z,98456.44
2024-05-09T03:36:56.039Z,98455.66
2024-05-09T03:39:26.248Z,98463.34
2024-05-09T03:41:56.387Z,98465.81
2024-05-09T03:44:26.710Z,98461.38
2024-05-09T03:46:57.474Z,98457.91
2024-05-09T03:49:27.705Z,98457.97
2024-05-09T03:51:57.902Z,98453.09
2024-05-09T03:54:27.467Z,98455.75
2024-05-09T03:56:57.587Z,98455.75
2024-05-09T03:59:25.232Z,98454.13
2024-05-09T04:01:55.496Z,98454.94
2024-05-09T04:04:25.760Z,98458.13
2024-05-09T04:06:55.945Z,98456.34
2024-05-09T04:09:23.440Z,98461.28
2024-05-09T04:11:53.814Z,98453.44
2024-05-09T04:14:21.598Z,98459.31
2024-05-09T04:16:51.783Z,98466.09
2024-05-09T04:19:19.386Z,98464.16
2024-05-09T04:21:52.296Z,98463.78
2024-05-09T04:24:19.783Z,98467.50
2024-05-09T04:26:49.893Z,98468.81
2024-05-09T04:29:17.430Z,98463.69
2024-05-09T04:31:47.655Z,98462.22
2024-05-09T04:34:15.252Z,98465.03
2024-05-09T04:36:45.392Z,98462.84
2024-05-09T04:39:15.548Z,98471.31
2024-05-09T04:41:45.635Z,98478.47
2024-05-09T04:44:13.249Z,98475.41
2024-05-09T04:46:43.365Z,98481.13
2024-05-09T04:49:10.905Z,98471.31
2024-05-09T04:51:41.189Z,98475.28
2024-05-09T04:54:12.992Z,98486.16
2024-05-09T04:56:51.538Z,98486.59
2024-05-09T04:59:19.145Z,98485.50
2024-05-09T05:01:49.426Z,98482.34
2024-05-09T05:04:17.100Z,98486.13
2024-05-09T05:06:47.533Z,98493.28
2024-05-09T05:09:15.047Z,98491.22
2024-05-09T05:11:45.278Z,98491.69
2024-05-09T05:14:15.625Z,98489.63
2024-05-09T05:16:45.848Z,98483.63
2024-05-09T05:19:16.137Z,98502.53
2024-05-09T05:21:47.776Z,98487.03
2024-05-09T05:24:15.245Z,98493.81
2024-05-09T05:26:45.395Z,98497.84
2024-05-09T05:29:16.497Z,98497.59
2024-05-09T05:31:47.999Z,98500.72
2024-05-09T05:34:15.509Z,98497.06
2024-05-09T05:36:45.642Z,98502.66
2024-05-09T05:39:13.134Z,98498.09
2024-05-09T05:41:43.266Z,98499.19
2024-05-09T05:44:14.160Z,98502.78
2024-05-09T05:46:46.980Z,98507.38
2024-05-09T05:49:14.716Z,98503.59
2024-05-09T05:51:44.945Z,98494.63
2024-05-09T05:54:12.451Z,98501.72
2024-05-09T05:56:42.677Z,98503.63
2024-05-09T05:59:12.019Z,98510.66
2024-05-09T06:01:46.173Z,98509.03
2024-05-09T06:04:13.723Z,98513.22
2024-05-09T06:06:43.888Z,98509.78
2024-05-09T06:09:11.428Z,98503.78
2024-05-09T06:11:43.342Z,98504.66
2024-05-09T06:14:10.865Z,98508.06
2024-05-09T06:16:41.063Z,98507.41
2024-05-09T06:19:11.283Z,98509.28
2024-05-09T06:21:41.455Z,98503.31
2024-05-09T06:24:08.918Z,98505.13
2024-05-09T06:26:39.124Z,98505.09
2024-05-09T06:29:06.967Z,98509.44
2024-05-09T06:31:42.259Z,98508.75
2024-05-09T06:34:12.787Z,98496.59
2024-05-09T06:36:42.971Z,98500.31
2024-05-09T06:39:10.561Z,98507.28
2024-05-09T06:41:40.769Z,98495.75
2024-05-09T06:44:08.285Z,98501.91
2024-05-09T06:46:40.164Z,98501.66
2024-05-09T06:49:08.841Z,98498.94
2024-05-09T06:51:43.108Z,98497.13
2024-05-09T06:54:10.771Z,98501.09
2024-05-09T06:56:42.332Z,98498.09
2024-05-09T06:59:09.915Z,98491.25
2024-05-09T07:01:40.090Z,98493.31
2024-05-09T07:04:07.833Z,98498.25
2024-05-09T07:06:37.991Z,98499.94
2024-05-09T07:09:08.119Z,98493.41
2024-05-09T07:11:38.357Z,98491.78
2024-05-09T07:14:06.315Z,98491.91
2024-05-09T07:16:36.452Z,98496.38
2024-05-09T07:19:04.187Z,98481.66
2024-05-09T07:21:34.865Z,98485.41
2024-05-09T07:24:02.469Z,98469.16
2024-05-09T07:26:35.318Z,98478.31
2024-05-09T07:29:02.937Z,98477.91
2024-05-09T07:31:33.073Z,98478.19
2024-05-09T07:34:01.153Z,98479.72
2024-05-09T07:36:31.315Z,98482.84
2024-05-09T07:38:58.888Z,98480.75
2024-05-09T07:41:29.558Z,98479.22
2024-05-09T07:43:59.763Z,98480.00
2024-05-09T07:47:36.959Z,98477.50
2024-05-09T07:50:56.180Z,98470.75
2024-05-09T07:54:39.170Z,98473.28
2024-05-09T07:57:09.449Z,98469.88
2024-05-09T07:59:39.611Z,98468.66
2024-05-09T08:02:10.319Z,98456.09
2024-05-09T08:04:37.979Z,98467.44
2024-05-09T08:07:08.338Z,98458.00
2024-05-09T08:09:38.400Z,98456.63
2024-05-09T08:12:09.743Z,98454.84
2024-05-09T08:14:39.888Z,98454.81
2024-05-09T08:17:11.996Z,98464.25
2024-05-09T08:19:40.711Z,98450.41
2024-05-09T08:22:11.018Z,98458.69
2024-05-09T08:24:38.646Z,98452.66
2024-05-09T08:27:09.079Z,98450.97
2024-05-09T08:29:39.354Z,98455.34
2024-05-09T08:32:12.589Z,98460.19
2024-05-09T08:34:40.343Z,98440.56
2024-05-09T08:37:15.710Z,98443.81
2024-05-09T08:39:48.968Z,98440.91
2024-05-09T08:42:21.103Z,98443.88
2024-05-09T08:44:52.220Z,98440.56
2024-05-09T08:47:22.491Z,98439.72
2024-05-09T08:49:58.169Z,98435.19
2024-05-09T08:52:28.643Z,98433.91
2024-05-09T08:54:56.199Z,98437.63
2024-05-09T08:57:28.824Z,98436.13
2024-05-09T09:00:06.263Z,98435.28
2024-05-09T09:02:41.374Z,98431.75
2024-05-09T09:05:16.627Z,98425.72
2024-05-09T09:07:48.534Z,98422.41
2024-05-09T09:10:24.938Z,98422.09
2024-05-09T09:13:05.249Z,98422.75
2024-05-09T09:15:46.897Z,98430.25
2024-05-09T09:18:18.699Z,98430.72
2024-05-09T09:20:46.604Z,98429.53
2024-05-09T09:23:17.046Z,98426.75
2024-05-09T09:25:44.537Z,98419.50
2024-05-09T09:28:15.898Z,98412.53
2024-05-09T09:30:46.481Z,98404.88
2024-05-09T09:33:16.872Z,98409.91
2024-05-09T09:35:44.610Z,98414.53
2024-05-09T09:38:20.907Z,98412.88
2024-05-09T09:40:50.117Z,98417.47
2024-05-09T09:43:24.374Z,98418.13
2024-05-09T09:45:55.926Z,98419.22
2024-05-09T09:48:26.654Z,98411.53
2024-05-09T09:50:56.706Z,98408.28
2024-05-09T09:53:27.245Z,98407.94
2024-05-09T09:55:56.007Z,98401.56
2024-05-09T09:58:26.734Z,98405.00
2024-05-09T10:00:57.041Z,98405.91
2024-05-09T10:03:27.603Z,98410.47
2024-05-09T10:05:56.083Z,98406.03
2024-05-09T10:08:27.118Z,98399.31
2024-05-09T10:10:55.646Z,98396.00
2024-05-09T10:13:36.426Z,98394.66
2024-05-09T10:16:12.231Z,98389.94
2024-05-09T10:18:43.765Z,98388.72
2024-05-09T10:21:17.941Z,98387.38
2024-05-09T10:24:01.296Z,98386.09
2024-05-09T10:26:33.998Z,98388.53
2024-05-09T10:29:13.621Z,98386.44
2024-05-09T10:31:46.488Z,98378.09
2024-05-09T10:34:21.154Z,98372.22
2024-05-09T10:36:53.611Z,98370.44
2024-05-09T10:39:24.836Z,98369.53
2024-05-09T10:41:52.423Z,98363.94
2024-05-09T10:44:24.849Z,98370.34
2024-05-09T10:46:55.716Z,98358.66
2024-05-09T10:49:26.141Z,98359.84
2024-05-09T10:51:53.913Z,98358.84
2024-05-09T10:54:24.100Z,98359.16
2024-05-09T10:56:57.448Z,98355.69
2024-05-09T10:59:27.598Z,98352.53
2024-05-09T11:01:58.867Z,98344.22
2024-05-09T11:04:30.374Z,98349.66
2024-05-09T11:07:01.535Z,98340.56
2024-05-09T11:09:34.655Z,98332.34
2024-05-09T11:12:02.993Z,98328.53
2024-05-09T11:14:33.930Z,98327.34
2024-05-09T11:17:06.414Z,98324.28
2024-05-09T11:19:40.788Z,98322.41
2024-05-09T11:22:08.807Z,98322.91
2024-05-09T11:24:39.129Z,98316.81
2024-05-09T11:27:06.852Z,98315.09
2024-05-09T11:29:42.241Z,98313.03
2024-05-09T11:32:14.832Z,98307.03
2024-05-09T11:34:45.648Z,98303.44
2024-05-09T11:37:13.916Z,98302.28
2024-05-09T11:39:44.226Z,98307.09
2024-05-09T11:42:11.989Z,98298.06
2024-05-09T11:44:42.098Z,98303.19
2024-05-09T11:47:12.269Z,98302.19
2024-05-09T11:49:42.540Z,98302.63
2024-05-09T11:52:10.112Z,98294.50
2024-05-09T11:54:40.283Z,98291.38
2024-05-09T11:57:09.552Z,98296.56
2024-05-09T11:59:40.142Z,98282.63
2024-05-09T12:02:07.786Z,98280.00
2024-05-09T12:04:40.797Z,98278.97
2024-05-09T12:07:11.325Z,98268.84
2024-05-09T12:09:42.380Z,98268.59
2024-05-09T12:12:10.044Z,98263.41
2024-05-09T12:14:40.155Z,98272.50
2024-05-09T12:17:07.745Z,98258.34
2024-05-09T12:19:40.567Z,98260.69
2024-05-09T12:22:08.142Z,98261.34
2024-05-09T12:24:38.421Z,98260.44
2024-05-09T12:27:06.160Z,98262.16
2024-05-09T12:29:38.237Z,98258.50
2024-05-09T12:32:07.129Z,98249.75
2024-05-09T12:34:39.966Z,98252.47
2024-05-09T12:37:07.620Z,98247.88
2024-05-09T12:39:37.810Z,98246.75
2024-05-09T12:42:05.796Z,98242.66
2024-05-09T12:44:35.943Z,98238.13
2024-05-09T12:47:03.673Z,98232.59
2024-05-09T12:49:33.991Z,98231.47
2024-05-09T12:52:04.938Z,98229.13
2024-05-09T12:54:35.116Z,98226.75
2024-05-09T12:57:02.671Z,98230.44
2024-05-09T12:59:32.940Z,98223.19
2024-05-09T13:02:01.386Z,98215.56
2024-05-09T13:04:31.803Z,98218.56
2024-05-09T13:06:59.518Z,98216.72
2024-05-09T13:09:32.424Z,98223.59
2024-05-09T13:12:00.176Z,98210.41
2024-05-09T13:14:30.399Z,98206.88
2024-05-09T13:16:57.985Z,98200.81
2024-05-09T13:19:28.236Z,98196.97
2024-05-09T13:21:55.793Z,98197.47
2024-05-09T13:24:25.949Z,98190.88
2024-05-09T13:26:56.154Z,98196.81
2024-05-09T13:29:27.781Z,98191.22
2024-05-09T13:31:55.284Z,98188.47
2024-05-09T13:34:25.452Z,98188.72
2024-05-09T13:36:53.511Z,98186.09
2024-05-09T13:39:23.667Z,98183.88
2024-05-09T13:41:51.130Z,98173.09
2024-05-09T13:44:23.861Z,98172.47
2024-05-09T13:46:51.581Z,98175.84
2024-05-09T13:49:21.822Z,98177.00
2024-05-09T13:51:52.078Z,98167.59
2024-05-09T13:54:22.342Z,98169.09
2024-05-09T13:56:52.814Z,98172.97
2024-05-09T13:59:22.930Z,98164.53
2024-05-09T14:01:53.125Z,98164.16
2024-05-09T14:04:20.897Z,98160.91
2024-05-09T14:06:51.426Z,98157.03
2024-05-09T14:09:19.046Z,98154.00
2024-05-09T14:11:49.265Z,98144.44
2024-05-09T14:14:16.767Z,98145.69
2024-05-09T14:16:49.695Z,98143.56
2024-05-09T14:19:17.439Z,98139.94
2024-05-09T14:21:47.728Z,98129.50
2024-05-09T14:24:15.243Z,98131.06
2024-05-09T14:26:45.471Z,98131.41
2024-05-09T14:29:12.942Z,98126.78
2024-05-09T14:31:43.133Z,98121.06
2024-05-09T14:34:13.435Z,98118.47
2024-05-09T14:36:43.864Z,98116.94
2024-05-09T14:39:11.640Z,98114.88
2024-05-09T14:41:41.758Z,98121.81
2024-05-09T14:44:09.253Z,98111.31
2024-05-09T14:46:39.394Z,98102.75
2024-05-09T14:49:09.803Z,98099.28
2024-05-09T14:51:43.583Z,98095.78
2024-05-09T14:54:11.097Z,98098.13
2024-05-09T14:56:41.309Z,98091.25
2024-05-09T14:59:09.217Z,98087.22
2024-05-09T15:01:39.418Z,98090.19
2024-05-09T15:04:07.045Z,98080.41
2024-05-09T15:06:37.427Z,98085.25
2024-05-09T15:09:08.130Z,98083.97
2024-05-09T15:11:38.345Z,98079.47
2024-05-09T15:14:05.917Z,98083.06
2024-05-09T15:16:36.194Z,98071.06
2024-05-09T15:19:04.019Z,98070.53
2024-05-09T15:21:34.269Z,98068.38
2024-05-09T15:24:01.816Z,98076.56
2024-05-09T15:26:34.653Z,98068.56
2024-05-09T15:29:02.298Z,98064.94
2024-05-09T15:31:32.707Z,98069.19
2024-05-09T15:34:00.391Z,98061.22
2024-05-09T15:36:30.764Z,98067.31
2024-05-09T15:38:58.292Z,98065.75
2024-05-09T15:41:28.842Z,98065.94
2024-05-09T15:43:59.141Z,98057.47
2024-05-09T15:46:29.470Z,98054.69
2024-05-09T15:48:57.248Z,98067.16
2024-05-09T15:51:27.419Z,98058.69
2024-05-09T15:53:54.882Z,98059.84
2024-05-09T15:56:25.059Z,98061.34
2024-05-09T15:58:52.649Z,98057.56
2024-05-09T16:01:25.473Z,98066.47
2024-05-09T16:03:53.198Z,98054.06
2024-05-09T16:06:23.874Z,98055.25
2024-05-09T16:08:51.354Z,98058.88
2024-05-09T16:11:21.543Z,98062.63
2024-05-09T16:13:49.091Z,98055.63
2024-05-09T16:16:19.446Z,98045.59
2024-05-09T16:18:49.683Z,98044.28
2024-05-09T16:21:22.790Z,98045.59
2024-05-09T16:23:50.567Z,98048.16
2024-05-09T16:26:20.762Z,98051.00
2024-05-09T16:28:49.032Z,98045.72
2024-05-09T16:31:19.178Z,98047.03
2024-05-09T16:33:49.477Z,98040.53
2024-05-09T16:36:19.970Z,98046.78
2024-05-09T16:38:47.501Z,98044.19
2024-05-09T16:41:17.691Z,98036.47
2024-05-09T16:43:47.791Z,98042.94
2024-05-09T16:46:15.437Z,98039.38
2024-05-09T16:48:47.145Z,98039.91
2024-05-09T16:51:19.967Z,98034.66
2024-05-09T16:53:47.447Z,98039.06
2024-05-09T16:56:17.695Z,98028.50
2024-05-09T16:58:45.410Z,98035.56
2024-05-09T17:01:16.098Z,98029.06
2024-05-09T17:03:44.028Z,98027.59
2024-05-09T17:06:14.534Z,98035.28
2024-05-09T17:08:44.714Z,98020.50
2024-05-09T17:11:15.457Z,98026.28
2024-05-09T17:13:48.165Z,98024.53
2024-05-09T17:16:20.867Z,98020.34
2024-05-09T17:18:51.533Z,98028.16
2024-05-09T17:21:19.308Z,98017.09
2024-05-09T17:23:54.268Z,98014.84
2024-05-09T17:26:24.693Z,98021.03
2024-05-09T17:28:52.438Z,98021.06
2024-05-09T17:31:22.723Z,98024.63
2024-05-09T17:33:50.628Z,98021.56
2024-05-09T17:36:20.903Z,98020.06
2024-05-09T17:38:51.262Z,98025.31
2024-05-09T17:41:21.358Z,98031.47
2024-05-09T17:43:48.871Z,98026.91
2024-05-09T17:46:19.094Z,98030.84
2024-05-09T17:48:46.744Z,98035.38
2024-05-09T17:51:16.983Z,98033.06
2024-05-09T17:53:44.442Z,98035.03
2024-05-09T17:56:18.026Z,98031.75
2024-05-09T17:58:46.437Z,98033.88
2024-05-09T18:01:16.561Z,98028.31
2024-05-09T18:03:44.421Z,98034.69
2024-05-09T18:06:14.722Z,98028.94
2024-05-09T18:08:42.197Z,98037.88
2024-05-09T18:11:12.354Z,98037.56
2024-05-09T18:13:42.542Z,98043.09
2024-05-09T18:16:12.694Z,98041.94
2024-05-09T18:18:41.143Z,98035.41
2024-05-09T18:21:11.407Z,98035.25
2024-05-09T18:23:38.911Z,98036.84
2024-05-09T18:26:10.746Z,98044.59
2024-05-09T18:28:38.308Z,98047.19
2024-05-09T18:31:11.232Z,98038.03
2024-05-09T18:33:39.007Z,98049.31
2024-05-09T18:36:10.350Z,98050.56
2024-05-09T18:38:39.517Z,98045.31
2024-05-09T18:41:09.654Z,98046.41
2024-05-09T18:43:42.356Z,98053.16
2024-05-09T18:46:18.317Z,98052.28
2024-05-09T18:48:45.916Z,98056.13
2024-05-09T18:51:16.262Z,98046.78
2024-05-09T18:53:45.076Z,98057.94
2024-05-09T18:56:15.433Z,98059.66
2024-05-09T18:58:42.910Z,98065.56
2024-05-09T19:01:13.876Z,98060.94
2024-05-09T19:03:44.229Z,98068.38
2024-05-09T19:06:14.535Z,98074.66
2024-05-09T19:08:42.040Z,98070.88
2024-05-09T19:11:12.227Z,98069.84
2024-05-09T19:13:39.964Z,98082.44
2024-05-09T19:16:10.731Z,98079.50
2024-05-09T19:18:38.407Z,98087.47
2024-05-09T19:21:11.569Z,98083.19
2024-05-09T19:23:44.351Z,98081.63
2024-05-09T19:26:21.053Z,98085.22
2024-05-09T19:28:48.545Z,98098.88
2024-05-09T19:31:18.866Z,98094.81
2024-05-09T19:33:49.152Z,98109.56
2024-05-09T19:36:19.501Z,98108.75
2024-05-09T19:38:51.358Z,98100.16
2024-05-09T19:41:18.897Z,98104.13
2024-05-09T19:43:49.016Z,98104.41
2024-05-09T19:46:17.282Z,98111.94
2024-05-09T19:48:47.621Z,98107.19
2024-05-09T19:51:15.262Z,98109.34
2024-05-09T19:53:47.996Z,98112.66
2024-05-09T19:56:15.511Z,98117.84
2024-05-09T19:58:46.247Z,98113.22
2024-05-09T20:01:13.934Z,98119.91
2024-05-09T20:03:44.306Z,98121.00
2024-05-09T20:06:11.972Z,98119.38
2024-05-09T20:08:42.104Z,98123.47
2024-05-09T20:11:12.296Z,98120.59
2024-05-09T20:13:42.458Z,98120.31
2024-05-09T20:16:10.061Z,98120.00
2024-05-09T20:18:40.327Z,98114.97
2024-05-09T20:21:08.058Z,98125.94
2024-05-09T20:23:38.245Z,98117.47
2024-05-09T20:26:05.946Z,98122.88
2024-05-09T20:28:38.716Z,98134.16
2024-05-09T20:31:06.998Z,98129.66
2024-05-09T20:33:37.907Z,98125.94
2024-05-09T20:36:06.665Z,98125.31
2024-05-09T20:38:36.781Z,98121.44
2024-05-09T20:41:04.540Z,98131.00
2024-05-09T20:43:34.718Z,98123.88
2024-05-09T20:46:05.689Z,98123.00
2024-05-09T20:48:36.982Z,98126.81
2024-05-09T20:51:05.223Z,98125.91
2024-05-09T20:53:35.327Z,98123.13
2024-05-09T20:56:02.871Z,98124.13
2024-05-09T20:58:33.013Z,98119.72
2024-05-09T21:01:00.684Z,98121.03
2024-05-09T21:03:35.627Z,98127.50
2024-05-09T21:06:03.201Z,98129.31
2024-05-09T21:08:33.324Z,98130.03
2024-05-09T21:11:00.843Z,98125.47
2024-05-09T21:13:31.096Z,98123.63
2024-05-09T21:15:58.756Z,98128.34
2024-05-09T21:18:28.999Z,98131.13
2024-05-09T21:20:59.200Z,98128.06
2024-05-09T21:23:29.331Z,98129.03
2024-05-09T21:25:56.830Z,98128.69
2024-05-09T21:28:27.140Z,98125.06
2024-05-09T21:30:54.745Z,98136.53
2024-05-09T21:33:25.226Z,98143.56
2024-05-09T21:35:54.682Z,98136.44
2024-05-09T21:38:27.450Z,98135.03
2024-05-09T21:40:54.974Z,98135.84
2024-05-09T21:43:26.981Z,98131.75
2024-05-09T21:45:54.546Z,98142.66
2024-05-09T21:48:24.714Z,98135.84
2024-05-09T21:50:52.360Z,98145.34
2024-05-09T21:53:22.489Z,98135.59
2024-05-09T21:55:52.623Z,98133.75
2024-05-09T21:58:23.586Z,98133.88
2024-05-09T22:00:51.292Z,98137.72
2024-05-09T22:03:21.608Z,98125.19
2024-05-09T22:05:49.191Z,98133.75
2024-05-09T22:08:19.392Z,98138.78
2024-05-09T22:10:46.964Z,98132.69
2024-05-09T22:13:20.407Z,98136.78
2024-05-09T22:15:48.175Z,98123.66
2024-05-09T22:18:18.515Z,98138.91
2024-05-09T22:20:46.806Z,98137.25
2024-05-09T22:23:17.620Z,98135.47
2024-05-09T22:25:45.208Z,98138.41
2024-05-09T22:28:19.835Z,98137.38
2024-05-09T22:30:47.851Z,98139.72
2024-05-09T22:33:18.337Z,98137.25
2024-05-09T22:35:47.353Z,98143.59
2024-05-09T22:38:17.763Z,98141.22
2024-05-09T22:40:48.612Z,98142.16
2024-05-09T22:43:25.152Z,98145.69
2024-05-09T22:45:54.873Z,98146.16
2024-05-09T22:48:26.463Z,98138.88
2024-05-09T22:50:54.637Z,98151.53
2024-05-09T22:53:26.302Z,98142.25
2024-05-09T22:55:54.319Z,98138.41
2024-05-09T22:58:27.248Z,98146.59
2024-05-09T23:00:54.982Z,98144.38
2024-05-09T23:03:25.268Z,98143.00
2024-05-09T23:05:52.960Z,98144.88
2024-05-09T23:08:23.088Z,98143.34
2024-05-09T23:10:50.752Z,98148.50
2024-05-09T23:13:21.171Z,98142.66
2024-05-09T23:15:51.544Z,98136.91
2024-05-09T23:18:22.000Z,98139.63
2024-05-09T23:20:49.600Z,98140.31
2024-05-09T23:23:19.832Z,98133.03
2024-05-09T23:25:47.334Z,98129.41
2024-05-09T23:28:17.585Z,98128.59
2024-05-09T23:30:45.137Z,98125.09
2024-05-09T23:33:18.161Z,98129.53
2024-05-09T23:35:45.769Z,98114.66
2024-05-09T23:38:15.922Z,98119.00
2024-05-09T23:40:43.775Z,98129.31
2024-05-09T23:43:14.625Z,98128.47
2024-05-09T23:45:42.942Z,98118.03
2024-05-09T23:48:13.774Z,98125.75
2024-05-09T23:50:44.208Z,98121.56
2024-05-09T23:53:14.827Z,98119.22
2024-05-09T23:55:42.346Z,98115.94
2024-05-09T23:58:12.561Z,98122.00
